38 min.

Voeg een landingsbaan toe om zijwind en tegenwind te zien.

Landingsbaan toevoegen
METAR ETWM 151720Z AUTO 03009KT //// // ////// 08/M07 Q1029 ///

METAR uitleg | Integreren

METAR Alte Ems Airfield

Alte Ems Airfield is een klein vliegveld in Herbrum, Duitsland. De terreinhoogte is 7 ft.

Alte Ems Airfield heeft geen recente waarnemingen gepubliceerd, daarom laten we je het rapport zien van Meppen Air Base, dat 34 km verderop ligt. Dit rapport is opgesteld op 15 april 2021 19:20, lokale tijd.

Vliegveldwaarnemingen

De wind staat vanuit de richting noordnoordoost (030°) met een snelheid van 9 kt.

De temperatuur is 8 °C, met een gevoelstemperatuur van 3 °C. Het dauwpunt is -7 °C, dus is de relatieve luchtvochtigheid 34%. De luchtdruk op zeeniveau is 1029 hPa (QNH).

Daglichtperiode

De zon komt vandaag op om 06:31 en gaat onder om 20:30. Dit geldt voor Alte Ems Airfield, de universele daglichtperiode kan anders zijn. Het verschil tussen de lokale tijd en UTC is +2 uur. Op dit moment is er sprake van zomertijd.

Historische gegevens

Doneren

Help je mee om Metar-Taf.com draaiend te houden?
Jouw bijdrage helpt om de site verder te ontwikkelen en om de kosten te betalen.

Nooit meer advertenties

Doneer je € 5 of meer? Dan laten we je nooit meer advertenties zien, als blijk van onze eeuwige dankbaarheid!
Log wel even in voordat je doneert

Wil je het vliegweer van Alte Ems Airfield op jouw website? Meer info   Gratis!